Historique des mesures à Cassis (13260), France
Quotidien Résumé Juin 3, 2021 Unités:  Métrique    US   Métrique/US
Quotidien Hebdomadaire Mensuel Annuel
  Maximum: Minimum: Moyenne:
Température: 29.5 °C 18.9 °C 24.5 °C
Point de rosée: 18.9 °C 13.2 °C 16.2 °C
Humidité: 76% 47% 61%
Vitesse du vent: 11.9km/h 0km/h 3.2km/h
Rafales: 19.4km/h - -
Vent- - SW
Pression: 1013.1 hPa 1010.7 hPa -
Précipitations: 0.0 mm    
Historical Graphs
 
 
Mesures pour : Juin 3, 2021
Heure Temperature Point de rosée Pression Vent Vitesse du vent Rafales Humidité Pluie (par heure)
00:11 20.6 °C 15.6 °C 1013.1 hPa West 11.9 km/h 16.2 km/h 73% 0.0 mm
01:11 20.5 °C 15.9 °C 1012.8 hPa West 7.2 km/h 19.4 km/h 75% 0.0 mm
02:11 20.5 °C 15.3 °C 1012.4 hPa NNW 4.7 km/h 8.6 km/h 72% 0.0 mm
03:11 19.9 °C 15.1 °C 1012.0 hPa NNW 4.7 km/h 8.6 km/h 74% 0.0 mm
04:11 19.3 °C 14.8 °C 1011.9 hPa Calm   4.7 km/h 75% 0.0 mm
05:11 18.9 °C 14.6 °C 1011.6 hPa NNW 1.1 km/h 8.3 km/h 76% 0.0 mm
06:11 18.9 °C 13.3 °C 1011.7 hPa WNW 6.5 km/h 7.2 km/h 70% 0.0 mm
07:11 19.3 °C 13.2 °C 1012.0 hPa Calm   2.5 km/h 68% 0.0 mm
08:11 29.3 °C 16.8 °C 1012.4 hPa Calm   1.4 km/h 47% 0.0 mm
09:11 25.1 °C 16.2 °C 1012.4 hPa Calm   4.7 km/h 58% 0.0 mm
10:11 23.8 °C 16.3 °C 1012.8 hPa Calm   7.2 km/h 63% 0.0 mm
11:11 26.6 °C 17.7 °C 1012.7 hPa SSE 3.6 km/h 8.6 km/h 58% 0.0 mm
12:11 28.5 °C 18 °C 1012.4 hPa Calm   7.9 km/h 53% 0.0 mm
13:11 28.9 °C 18.4 °C 1012.4 hPa South 2.2 km/h 9.7 km/h 53% 0.0 mm
14:11 29.2 °C 18.9 °C 1012.1 hPa ESE 4.3 km/h 10.1 km/h 54% 0.0 mm
15:11 29.5 °C 18.6 °C 1011.6 hPa SE 9 km/h 14 km/h 52% 0.0 mm
16:11 28.9 °C 18.1 °C 1011.3 hPa SE 11.2 km/h 13 km/h 52% 0.0 mm
17:11 28.2 °C 18.3 °C 1011.6 hPa Calm   6.5 km/h 55% 0.0 mm
18:11 28.1 °C 17 °C 1011.0 hPa Calm   9.7 km/h 51% 0.0 mm
19:11 27.3 °C 16 °C 1010.7 hPa SE 3.6 km/h 9 km/h 50% 0.0 mm
20:11 26.5 °C 15.8 °C 1011.1 hPa SE 2.5 km/h 5 km/h 52% 0.0 mm
21:11 24.1 °C 15.3 °C 1011.3 hPa Calm   1.8 km/h 58% 0.0 mm
22:11 22.9 °C 14.7 °C 1011.9 hPa SE 2.2 km/h 2.9 km/h 60% 0.0 mm
23:11 22.1 °C 14.5 °C 1011.9 hPa West 1.1 km/h 5.4 km/h 62% 0.0 mm
Observations météo à CASSIS
WU-History script by Weather Underground - 2 mb